sensor_id;sensor_type;location;lat;lon;timestamp;P1;durP1;ratioP1;P2;durP2;ratioP2
64075;SDS011;50327;51.328;12.324;2023-02-12T00:01:36;55.40;;;23.42;;
64075;SDS011;50327;51.328;12.324;2023-02-12T00:04:02;55.95;;;25.13;;
64075;SDS011;50327;51.328;12.324;2023-02-12T00:06:27;57.28;;;23.55;;
64075;SDS011;50327;51.328;12.324;2023-02-12T00:08:53;56.55;;;23.27;;
64075;SDS011;50327;51.328;12.324;2023-02-12T00:11:22;55.45;;;23.05;;
64075;SDS011;50327;51.328;12.324;2023-02-12T00:13:49;60.95;;;23.38;;
64075;SDS011;50327;51.328;12.324;2023-02-12T00:16:16;59.05;;;23.60;;
64075;SDS011;50327;51.328;12.324;2023-02-12T00:18:43;63.43;;;24.40;;
64075;SDS011;50327;51.328;12.324;2023-02-12T00:21:10;70.85;;;25.35;;
64075;SDS011;50327;51.328;12.324;2023-02-12T00:23:37;66.93;;;24.85;;
64075;SDS011;50327;51.328;12.324;2023-02-12T00:26:06;56.30;;;23.90;;
64075;SDS011;50327;51.328;12.324;2023-02-12T00:28:33;57.22;;;23.02;;
64075;SDS011;50327;51.328;12.324;2023-02-12T00:31:03;61.72;;;22.85;;
64075;SDS011;50327;51.328;12.324;2023-02-12T00:33:29;56.42;;;22.77;;
64075;SDS011;50327;51.328;12.324;2023-02-12T00:35:55;55.55;;;23.30;;
64075;SDS011;50327;51.328;12.324;2023-02-12T00:38:21;52.88;;;23.20;;
64075;SDS011;50327;51.328;12.324;2023-02-12T00:40:47;59.67;;;23.60;;
64075;SDS011;50327;51.328;12.324;2023-02-12T00:43:12;55.70;;;22.58;;
64075;SDS011;50327;51.328;12.324;2023-02-12T00:45:38;58.05;;;23.05;;
64075;SDS011;50327;51.328;12.324;2023-02-12T00:48:03;58.90;;;22.50;;
64075;SDS011;50327;51.328;12.324;2023-02-12T00:50:29;60.55;;;22.65;;
64075;SDS011;50327;51.328;12.324;2023-02-12T00:52:54;57.13;;;21.88;;
64075;SDS011;50327;51.328;12.324;2023-02-12T00:55:19;56.17;;;21.75;;
64075;SDS011;50327;51.328;12.324;2023-02-12T00:57:45;54.08;;;22.77;;
64075;SDS011;50327;51.328;12.324;2023-02-12T01:00:10;55.50;;;21.58;;
64075;SDS011;50327;51.328;12.324;2023-02-12T01:02:37;62.60;;;23.20;;
64075;SDS011;50327;51.328;12.324;2023-02-12T01:05:02;51.45;;;20.80;;
64075;SDS011;50327;51.328;12.324;2023-02-12T01:07:28;58.95;;;22.63;;
64075;SDS011;50327;51.328;12.324;2023-02-12T01:09:53;56.63;;;21.08;;
64075;SDS011;50327;51.328;12.324;2023-02-12T01:12:19;53.60;;;21.40;;
64075;SDS011;50327;51.328;12.324;2023-02-12T01:14:44;55.67;;;23.08;;
64075;SDS011;50327;51.328;12.324;2023-02-12T01:17:10;55.72;;;21.33;;
64075;SDS011;50327;51.328;12.324;2023-02-12T01:19:35;59.67;;;22.55;;
64075;SDS011;50327;51.328;12.324;2023-02-12T01:22:01;55.05;;;21.92;;
64075;SDS011;50327;51.328;12.324;2023-02-12T01:24:26;52.00;;;20.90;;
64075;SDS011;50327;51.328;12.324;2023-02-12T01:26:51;58.10;;;22.73;;
64075;SDS011;50327;51.328;12.324;2023-02-12T01:29:17;61.90;;;20.83;;
64075;SDS011;50327;51.328;12.324;2023-02-12T01:31:42;62.00;;;22.65;;
64075;SDS011;50327;51.328;12.324;2023-02-12T01:34:08;51.00;;;20.48;;
64075;SDS011;50327;51.328;12.324;2023-02-12T01:36:34;56.33;;;21.67;;
64075;SDS011;50327;51.328;12.324;2023-02-12T01:39:00;60.42;;;21.80;;
64075;SDS011;50327;51.328;12.324;2023-02-12T01:41:41;52.50;;;20.83;;
64075;SDS011;50327;51.328;12.324;2023-02-12T01:46:39;54.85;;;20.33;;
64075;SDS011;50327;51.328;12.324;2023-02-12T01:49:07;55.20;;;19.92;;
64075;SDS011;50327;51.328;12.324;2023-02-12T01:51:36;47.80;;;19.40;;
64075;SDS011;50327;51.328;12.324;2023-02-12T01:54:06;49.70;;;19.90;;
64075;SDS011;50327;51.328;12.324;2023-02-12T01:56:34;46.70;;;19.30;;
64075;SDS011;50327;51.328;12.324;2023-02-12T01:59:00;45.38;;;18.73;;
64075;SDS011;50327;51.328;12.324;2023-02-12T02:01:29;46.95;;;19.17;;
64075;SDS011;50327;51.328;12.324;2023-02-12T02:03:57;48.22;;;19.80;;
64075;SDS011;50327;51.328;12.324;2023-02-12T02:06:33;52.35;;;19.20;;
64075;SDS011;50327;51.328;12.324;2023-02-12T02:09:02;42.25;;;17.77;;
64075;SDS011;50327;51.328;12.324;2023-02-12T02:11:28;48.63;;;19.55;;
64075;SDS011;50327;51.328;12.324;2023-02-12T02:14:12;43.60;;;18.45;;
64075;SDS011;50327;51.328;12.324;2023-02-12T02:35:52;51.83;;;18.65;;
64075;SDS011;50327;51.328;12.324;2023-02-12T02:43:44;48.58;;;19.25;;
64075;SDS011;50327;51.328;12.324;2023-02-12T02:46:15;46.67;;;18.92;;
64075;SDS011;50327;51.328;12.324;2023-02-12T02:48:51;51.80;;;19.45;;
64075;SDS011;50327;51.328;12.324;2023-02-12T02:51:21;47.53;;;18.48;;
64075;SDS011;50327;51.328;12.324;2023-02-12T02:53:53;45.88;;;19.60;;
64075;SDS011;50327;51.328;12.324;2023-02-12T02:56:28;47.72;;;18.23;;
64075;SDS011;50327;51.328;12.324;2023-02-12T02:58:58;44.53;;;18.35;;
64075;SDS011;50327;51.328;12.324;2023-02-12T03:01:35;44.35;;;19.08;;
64075;SDS011;50327;51.328;12.324;2023-02-12T03:04:34;50.72;;;18.90;;
64075;SDS011;50327;51.328;12.324;2023-02-12T03:09:58;45.35;;;18.42;;
64075;SDS011;50327;51.328;12.324;2023-02-12T03:12:43;45.03;;;19.63;;
64075;SDS011;50327;51.328;12.324;2023-02-12T03:15:32;47.08;;;19.65;;
64075;SDS011;50327;51.328;12.324;2023-02-12T03:18:17;52.08;;;20.27;;
64075;SDS011;50327;51.328;12.324;2023-02-12T03:20:47;48.47;;;19.17;;
64075;SDS011;50327;51.328;12.324;2023-02-12T03:23:39;50.70;;;19.85;;
64075;SDS011;50327;51.328;12.324;2023-02-12T03:26:15;57.38;;;20.48;;
64075;SDS011;50327;51.328;12.324;2023-02-12T03:28:46;51.95;;;19.60;;
64075;SDS011;50327;51.328;12.324;2023-02-12T03:39:10;53.60;;;20.50;;
64075;SDS011;50327;51.328;12.324;2023-02-12T03:41:49;46.33;;;17.88;;
64075;SDS011;50327;51.328;12.324;2023-02-12T03:45:28;45.97;;;19.45;;
64075;SDS011;50327;51.328;12.324;2023-02-12T03:50:32;43.63;;;18.90;;
64075;SDS011;50327;51.328;12.324;2023-02-12T03:52:57;41.40;;;18.73;;
64075;SDS011;50327;51.328;12.324;2023-02-12T03:55:22;46.70;;;18.73;;
64075;SDS011;50327;51.328;12.324;2023-02-12T03:57:49;52.25;;;18.45;;
64075;SDS011;50327;51.328;12.324;2023-02-12T04:00:21;46.97;;;19.65;;
64075;SDS011;50327;51.328;12.324;2023-02-12T04:02:48;40.63;;;17.48;;
64075;SDS011;50327;51.328;12.324;2023-02-12T04:05:15;51.45;;;18.85;;
64075;SDS011;50327;51.328;12.324;2023-02-12T04:07:42;43.80;;;19.60;;
64075;SDS011;50327;51.328;12.324;2023-02-12T04:10:08;38.95;;;18.75;;
64075;SDS011;50327;51.328;12.324;2023-02-12T04:26:02;41.30;;;18.27;;
64075;SDS011;50327;51.328;12.324;2023-02-12T04:31:37;39.65;;;17.17;;
64075;SDS011;50327;51.328;12.324;2023-02-12T04:36:51;44.03;;;18.02;;
64075;SDS011;50327;51.328;12.324;2023-02-12T04:39:21;43.83;;;18.15;;
64075;SDS011;50327;51.328;12.324;2023-02-12T04:41:51;42.78;;;19.00;;
64075;SDS011;50327;51.328;12.324;2023-02-12T04:44:18;39.63;;;17.13;;
64075;SDS011;50327;51.328;12.324;2023-02-12T04:46:47;46.95;;;18.60;;
64075;SDS011;50327;51.328;12.324;2023-02-12T04:49:16;42.38;;;19.25;;
64075;SDS011;50327;51.328;12.324;2023-02-12T04:51:43;42.03;;;17.67;;
64075;SDS011;50327;51.328;12.324;2023-02-12T04:54:10;40.35;;;18.05;;
64075;SDS011;50327;51.328;12.324;2023-02-12T04:56:36;38.28;;;16.80;;
64075;SDS011;50327;51.328;12.324;2023-02-12T04:59:02;43.40;;;18.42;;
64075;SDS011;50327;51.328;12.324;2023-02-12T05:01:27;37.90;;;16.50;;
64075;SDS011;50327;51.328;12.324;2023-02-12T05:03:53;33.80;;;16.63;;
64075;SDS011;50327;51.328;12.324;2023-02-12T05:06:18;33.35;;;15.52;;
64075;SDS011;50327;51.328;12.324;2023-02-12T05:08:43;41.80;;;16.70;;
64075;SDS011;50327;51.328;12.324;2023-02-12T05:11:09;37.50;;;17.38;;
64075;SDS011;50327;51.328;12.324;2023-02-12T05:13:35;37.63;;;16.92;;
64075;SDS011;50327;51.328;12.324;2023-02-12T05:16:05;35.90;;;15.82;;
64075;SDS011;50327;51.328;12.324;2023-02-12T05:18:32;37.75;;;17.40;;
64075;SDS011;50327;51.328;12.324;2023-02-12T05:20:58;40.83;;;17.13;;
64075;SDS011;50327;51.328;12.324;2023-02-12T05:23:25;39.10;;;15.85;;
64075;SDS011;50327;51.328;12.324;2023-02-12T05:25:52;44.17;;;16.75;;
64075;SDS011;50327;51.328;12.324;2023-02-12T05:28:18;42.47;;;17.13;;
64075;SDS011;50327;51.328;12.324;2023-02-12T05:30:44;35.15;;;16.02;;
64075;SDS011;50327;51.328;12.324;2023-02-12T05:33:09;37.63;;;16.80;;
64075;SDS011;50327;51.328;12.324;2023-02-12T05:35:34;42.08;;;17.90;;
64075;SDS011;50327;51.328;12.324;2023-02-12T05:38:00;38.85;;;18.00;;
64075;SDS011;50327;51.328;12.324;2023-02-12T05:40:25;37.78;;;15.95;;
64075;SDS011;50327;51.328;12.324;2023-02-12T05:42:50;36.50;;;15.95;;
64075;SDS011;50327;51.328;12.324;2023-02-12T05:45:16;37.67;;;16.15;;
64075;SDS011;50327;51.328;12.324;2023-02-12T05:47:41;41.95;;;17.60;;
64075;SDS011;50327;51.328;12.324;2023-02-12T05:50:07;38.72;;;16.42;;
64075;SDS011;50327;51.328;12.324;2023-02-12T05:52:32;39.55;;;16.50;;
64075;SDS011;50327;51.328;12.324;2023-02-12T05:54:58;41.28;;;16.92;;
64075;SDS011;50327;51.328;12.324;2023-02-12T05:57:23;37.92;;;15.90;;
64075;SDS011;50327;51.328;12.324;2023-02-12T05:59:49;41.47;;;16.58;;
64075;SDS011;50327;51.328;12.324;2023-02-12T06:02:14;38.35;;;17.42;;
64075;SDS011;50327;51.328;12.324;2023-02-12T06:04:39;37.22;;;17.17;;
64075;SDS011;50327;51.328;12.324;2023-02-12T06:07:05;41.88;;;17.88;;
64075;SDS011;50327;51.328;12.324;2023-02-12T06:09:31;39.53;;;17.58;;
64075;SDS011;50327;51.328;12.324;2023-02-12T06:11:58;40.47;;;18.00;;
64075;SDS011;50327;51.328;12.324;2023-02-12T06:14:23;35.10;;;16.00;;
64075;SDS011;50327;51.328;12.324;2023-02-12T06:16:49;40.45;;;16.77;;
64075;SDS011;50327;51.328;12.324;2023-02-12T06:19:15;41.97;;;16.83;;
64075;SDS011;50327;51.328;12.324;2023-02-12T06:21:42;36.65;;;15.82;;
64075;SDS011;50327;51.328;12.324;2023-02-12T06:24:08;42.15;;;18.15;;
64075;SDS011;50327;51.328;12.324;2023-02-12T06:26:36;47.88;;;18.25;;
64075;SDS011;50327;51.328;12.324;2023-02-12T06:29:01;42.00;;;18.13;;
64075;SDS011;50327;51.328;12.324;2023-02-12T06:31:28;44.80;;;18.27;;
64075;SDS011;50327;51.328;12.324;2023-02-12T06:33:55;38.80;;;15.57;;
64075;SDS011;50327;51.328;12.324;2023-02-12T06:36:22;40.80;;;17.55;;
64075;SDS011;50327;51.328;12.324;2023-02-12T06:38:48;40.45;;;18.08;;
64075;SDS011;50327;51.328;12.324;2023-02-12T06:41:14;39.92;;;17.10;;
64075;SDS011;50327;51.328;12.324;2023-02-12T06:43:40;41.78;;;16.88;;
64075;SDS011;50327;51.328;12.324;2023-02-12T06:46:06;45.72;;;17.00;;
64075;SDS011;50327;51.328;12.324;2023-02-12T06:48:32;44.90;;;18.17;;
64075;SDS011;50327;51.328;12.324;2023-02-12T06:51:08;46.65;;;17.83;;
64075;SDS011;50327;51.328;12.324;2023-02-12T06:53:35;36.17;;;16.25;;
64075;SDS011;50327;51.328;12.324;2023-02-12T06:56:02;45.15;;;18.55;;
64075;SDS011;50327;51.328;12.324;2023-02-12T06:58:29;42.13;;;18.80;;
64075;SDS011;50327;51.328;12.324;2023-02-12T07:00:54;45.78;;;18.98;;
64075;SDS011;50327;51.328;12.324;2023-02-12T07:03:20;40.97;;;17.75;;
64075;SDS011;50327;51.328;12.324;2023-02-12T07:05:45;43.38;;;18.73;;
64075;SDS011;50327;51.328;12.324;2023-02-12T07:08:12;40.53;;;17.10;;
64075;SDS011;50327;51.328;12.324;2023-02-12T07:10:38;44.92;;;18.42;;
64075;SDS011;50327;51.328;12.324;2023-02-12T07:13:03;49.10;;;20.42;;
64075;SDS011;50327;51.328;12.324;2023-02-12T07:15:29;43.03;;;17.27;;
64075;SDS011;50327;51.328;12.324;2023-02-12T07:17:54;38.63;;;19.10;;
64075;SDS011;50327;51.328;12.324;2023-02-12T07:20:20;37.47;;;17.20;;
64075;SDS011;50327;51.328;12.324;2023-02-12T07:22:45;35.35;;;16.48;;
64075;SDS011;50327;51.328;12.324;2023-02-12T07:25:10;40.55;;;16.50;;
64075;SDS011;50327;51.328;12.324;2023-02-12T07:27:36;39.38;;;15.48;;
64075;SDS011;50327;51.328;12.324;2023-02-12T07:30:03;37.20;;;16.35;;
64075;SDS011;50327;51.328;12.324;2023-02-12T07:32:31;45.92;;;18.73;;
64075;SDS011;50327;51.328;12.324;2023-02-12T07:34:57;35.35;;;16.17;;
64075;SDS011;50327;51.328;12.324;2023-02-12T07:37:22;37.42;;;17.17;;
64075;SDS011;50327;51.328;12.324;2023-02-12T07:39:48;34.15;;;16.15;;
64075;SDS011;50327;51.328;12.324;2023-02-12T07:42:14;40.70;;;15.38;;
64075;SDS011;50327;51.328;12.324;2023-02-12T07:44:39;35.65;;;16.40;;
64075;SDS011;50327;51.328;12.324;2023-02-12T07:47:04;38.25;;;16.00;;
64075;SDS011;50327;51.328;12.324;2023-02-12T07:49:30;35.08;;;16.02;;
64075;SDS011;50327;51.328;12.324;2023-02-12T07:51:55;36.55;;;16.65;;
64075;SDS011;50327;51.328;12.324;2023-02-12T07:54:21;36.65;;;16.83;;
64075;SDS011;50327;51.328;12.324;2023-02-12T07:56:46;35.25;;;16.55;;
64075;SDS011;50327;51.328;12.324;2023-02-12T07:59:12;36.40;;;16.20;;
64075;SDS011;50327;51.328;12.324;2023-02-12T08:01:41;34.63;;;16.23;;
64075;SDS011;50327;51.328;12.324;2023-02-12T08:04:11;34.08;;;16.08;;
64075;SDS011;50327;51.328;12.324;2023-02-12T08:06:39;34.75;;;16.08;;
64075;SDS011;50327;51.328;12.324;2023-02-12T08:09:06;35.20;;;16.20;;
64075;SDS011;50327;51.328;12.324;2023-02-12T08:11:36;37.78;;;16.73;;
64075;SDS011;50327;51.328;12.324;2023-02-12T08:14:03;46.92;;;17.77;;
64075;SDS011;50327;51.328;12.324;2023-02-12T08:16:28;34.95;;;15.82;;
64075;SDS011;50327;51.328;12.324;2023-02-12T08:18:56;40.03;;;17.48;;
64075;SDS011;50327;51.328;12.324;2023-02-12T08:21:23;39.28;;;17.10;;
64075;SDS011;50327;51.328;12.324;2023-02-12T08:23:50;50.58;;;18.08;;
64075;SDS011;50327;51.328;12.324;2023-02-12T08:26:18;43.78;;;17.50;;
64075;SDS011;50327;51.328;12.324;2023-02-12T08:28:45;41.63;;;17.85;;
64075;SDS011;50327;51.328;12.324;2023-02-12T08:31:16;39.42;;;18.20;;
64075;SDS011;50327;51.328;12.324;2023-02-12T08:33:45;47.47;;;19.10;;
64075;SDS011;50327;51.328;12.324;2023-02-12T08:36:13;44.10;;;18.63;;
64075;SDS011;50327;51.328;12.324;2023-02-12T08:38:40;48.45;;;18.58;;
64075;SDS011;50327;51.328;12.324;2023-02-12T08:41:07;40.33;;;19.02;;
64075;SDS011;50327;51.328;12.324;2023-02-12T08:43:34;40.77;;;18.60;;
64075;SDS011;50327;51.328;12.324;2023-02-12T08:46:04;46.47;;;19.80;;
64075;SDS011;50327;51.328;12.324;2023-02-12T08:48:30;48.03;;;19.65;;
64075;SDS011;50327;51.328;12.324;2023-02-12T08:51:02;52.13;;;19.60;;
64075;SDS011;50327;51.328;12.324;2023-02-12T08:53:50;47.45;;;20.15;;
64075;SDS011;50327;51.328;12.324;2023-02-12T08:58:42;42.33;;;17.25;;
64075;SDS011;50327;51.328;12.324;2023-02-12T09:01:09;49.50;;;19.30;;
64075;SDS011;50327;51.328;12.324;2023-02-12T09:03:36;41.13;;;18.77;;
64075;SDS011;50327;51.328;12.324;2023-02-12T09:06:02;47.85;;;19.60;;
64075;SDS011;50327;51.328;12.324;2023-02-12T09:08:29;40.47;;;17.63;;
64075;SDS011;50327;51.328;12.324;2023-02-12T09:10:55;38.30;;;18.42;;
64075;SDS011;50327;51.328;12.324;2023-02-12T09:13:20;41.10;;;18.00;;
64075;SDS011;50327;51.328;12.324;2023-02-12T09:15:45;42.60;;;17.73;;
64075;SDS011;50327;51.328;12.324;2023-02-12T09:18:11;40.05;;;17.10;;
64075;SDS011;50327;51.328;12.324;2023-02-12T09:20:39;40.80;;;17.77;;
64075;SDS011;50327;51.328;12.324;2023-02-12T09:23:07;33.42;;;16.85;;
64075;SDS011;50327;51.328;12.324;2023-02-12T09:25:33;34.08;;;17.10;;
64075;SDS011;50327;51.328;12.324;2023-02-12T09:28:02;35.40;;;17.02;;
64075;SDS011;50327;51.328;12.324;2023-02-12T09:30:28;35.85;;;16.45;;
64075;SDS011;50327;51.328;12.324;2023-02-12T09:32:53;34.85;;;15.35;;
64075;SDS011;50327;51.328;12.324;2023-02-12T09:35:20;38.35;;;15.30;;
64075;SDS011;50327;51.328;12.324;2023-02-12T09:37:46;27.60;;;14.70;;
64075;SDS011;50327;51.328;12.324;2023-02-12T09:46:07;26.05;;;14.20;;
64075;SDS011;50327;51.328;12.324;2023-02-12T09:51:14;27.05;;;14.98;;
64075;SDS011;50327;51.328;12.324;2023-02-12T09:53:41;29.98;;;14.95;;
64075;SDS011;50327;51.328;12.324;2023-02-12T09:56:13;27.95;;;13.63;;
64075;SDS011;50327;51.328;12.324;2023-02-12T09:58:52;29.60;;;15.20;;
64075;SDS011;50327;51.328;12.324;2023-02-12T10:01:23;39.10;;;15.32;;
64075;SDS011;50327;51.328;12.324;2023-02-12T10:03:49;35.28;;;15.55;;
64075;SDS011;50327;51.328;12.324;2023-02-12T10:06:27;30.13;;;15.27;;
64075;SDS011;50327;51.328;12.324;2023-02-12T10:24:54;30.20;;;14.67;;
64075;SDS011;50327;51.328;12.324;2023-02-12T10:30:13;33.72;;;14.05;;
64075;SDS011;50327;51.328;12.324;2023-02-12T10:32:42;30.50;;;14.27;;
64075;SDS011;50327;51.328;12.324;2023-02-12T10:35:16;39.58;;;15.40;;
64075;SDS011;50327;51.328;12.324;2023-02-12T10:37:44;31.10;;;14.73;;
64075;SDS011;50327;51.328;12.324;2023-02-12T10:40:17;29.92;;;14.32;;
64075;SDS011;50327;51.328;12.324;2023-02-12T10:42:48;32.40;;;13.80;;
64075;SDS011;50327;51.328;12.324;2023-02-12T10:45:20;28.73;;;13.25;;
64075;SDS011;50327;51.328;12.324;2023-02-12T10:47:51;27.30;;;12.63;;
64075;SDS011;50327;51.328;12.324;2023-02-12T10:50:27;31.27;;;13.27;;
64075;SDS011;50327;51.328;12.324;2023-02-12T10:52:58;26.23;;;13.20;;
64075;SDS011;50327;51.328;12.324;2023-02-12T10:55:34;31.30;;;15.93;;
64075;SDS011;50327;51.328;12.324;2023-02-12T10:58:01;35.85;;;16.48;;
64075;SDS011;50327;51.328;12.324;2023-02-12T11:00:30;32.05;;;18.00;;
64075;SDS011;50327;51.328;12.324;2023-02-12T11:05:37;26.48;;;12.25;;
64075;SDS011;50327;51.328;12.324;2023-02-12T11:08:04;25.47;;;11.70;;
64075;SDS011;50327;51.328;12.324;2023-02-12T11:10:37;26.02;;;11.38;;
64075;SDS011;50327;51.328;12.324;2023-02-12T11:13:04;27.70;;;12.35;;
64075;SDS011;50327;51.328;12.324;2023-02-12T11:15:34;26.77;;;11.40;;
64075;SDS011;50327;51.328;12.324;2023-02-12T11:18:03;23.85;;;11.43;;
64075;SDS011;50327;51.328;12.324;2023-02-12T11:20:38;27.30;;;11.13;;
64075;SDS011;50327;51.328;12.324;2023-02-12T11:28:52;23.85;;;10.07;;
64075;SDS011;50327;51.328;12.324;2023-02-12T11:31:22;26.20;;;12.10;;
64075;SDS011;50327;51.328;12.324;2023-02-12T11:36:32;32.45;;;12.65;;
64075;SDS011;50327;51.328;12.324;2023-02-12T11:39:00;29.50;;;13.32;;
64075;SDS011;50327;51.328;12.324;2023-02-12T11:43:52;26.15;;;12.40;;
64075;SDS011;50327;51.328;12.324;2023-02-12T11:46:18;25.90;;;12.52;;
64075;SDS011;50327;51.328;12.324;2023-02-12T11:48:50;29.40;;;13.80;;
64075;SDS011;50327;51.328;12.324;2023-02-12T11:51:19;28.80;;;12.52;;
64075;SDS011;50327;51.328;12.324;2023-02-12T11:53:51;23.95;;;11.35;;
64075;SDS011;50327;51.328;12.324;2023-02-12T11:58:45;24.25;;;10.70;;
64075;SDS011;50327;51.328;12.324;2023-02-12T12:06:17;28.25;;;12.00;;
64075;SDS011;50327;51.328;12.324;2023-02-12T12:08:47;27.35;;;11.73;;
64075;SDS011;50327;51.328;12.324;2023-02-12T12:17:35;24.75;;;12.23;;
64075;SDS011;50327;51.328;12.324;2023-02-12T12:20:22;25.45;;;11.57;;
64075;SDS011;50327;51.328;12.324;2023-02-12T12:26:10;24.23;;;12.05;;
64075;SDS011;50327;51.328;12.324;2023-02-12T12:28:46;30.45;;;13.75;;
64075;SDS011;50327;51.328;12.324;2023-02-12T12:31:33;31.23;;;12.77;;
64075;SDS011;50327;51.328;12.324;2023-02-12T12:34:11;33.03;;;13.90;;
64075;SDS011;50327;51.328;12.324;2023-02-12T12:39:48;41.35;;;14.20;;
64075;SDS011;50327;51.328;12.324;2023-02-12T13:13:17;37.45;;;15.50;;
64075;SDS011;50327;51.328;12.324;2023-02-12T13:16:21;46.55;;;15.73;;
64075;SDS011;50327;51.328;12.324;2023-02-12T13:24:13;40.70;;;16.33;;
64075;SDS011;50327;51.328;12.324;2023-02-12T13:29:34;39.78;;;16.27;;
64075;SDS011;50327;51.328;12.324;2023-02-12T13:34:48;39.40;;;15.73;;
64075;SDS011;50327;51.328;12.324;2023-02-12T13:37:17;44.53;;;15.77;;
64075;SDS011;50327;51.328;12.324;2023-02-12T13:39:59;44.15;;;15.70;;
64075;SDS011;50327;51.328;12.324;2023-02-12T13:47:45;35.00;;;15.87;;
64075;SDS011;50327;51.328;12.324;2023-02-12T13:50:38;41.65;;;16.02;;
64075;SDS011;50327;51.328;12.324;2023-02-12T13:53:14;37.25;;;15.18;;
64075;SDS011;50327;51.328;12.324;2023-02-12T13:56:04;38.70;;;14.45;;
64075;SDS011;50327;51.328;12.324;2023-02-12T14:01:43;39.70;;;14.73;;
64075;SDS011;50327;51.328;12.324;2023-02-12T14:06:58;37.35;;;13.80;;
64075;SDS011;50327;51.328;12.324;2023-02-12T14:12:08;40.40;;;14.20;;
64075;SDS011;50327;51.328;12.324;2023-02-12T14:14:41;32.17;;;13.40;;
64075;SDS011;50327;51.328;12.324;2023-02-12T14:24:55;35.83;;;15.52;;
64075;SDS011;50327;51.328;12.324;2023-02-12T14:27:32;33.20;;;14.63;;
64075;SDS011;50327;51.328;12.324;2023-02-12T14:37:51;43.92;;;15.90;;
64075;SDS011;50327;51.328;12.324;2023-02-12T14:40:29;36.80;;;14.82;;
64075;SDS011;50327;51.328;12.324;2023-02-12T14:42:55;40.40;;;16.45;;
64075;SDS011;50327;51.328;12.324;2023-02-12T14:45:42;41.80;;;15.93;;
64075;SDS011;50327;51.328;12.324;2023-02-12T14:48:07;41.15;;;15.13;;
64075;SDS011;50327;51.328;12.324;2023-02-12T14:51:14;38.15;;;16.00;;
64075;SDS011;50327;51.328;12.324;2023-02-12T14:53:45;39.63;;;15.02;;
64075;SDS011;50327;51.328;12.324;2023-02-12T14:56:17;36.17;;;15.02;;
64075;SDS011;50327;51.328;12.324;2023-02-12T14:58:44;40.13;;;15.27;;
64075;SDS011;50327;51.328;12.324;2023-02-12T15:01:10;39.92;;;16.65;;
64075;SDS011;50327;51.328;12.324;2023-02-12T15:06:20;36.55;;;15.02;;
64075;SDS011;50327;51.328;12.324;2023-02-12T15:08:53;34.13;;;14.13;;
64075;SDS011;50327;51.328;12.324;2023-02-12T15:11:35;44.35;;;15.68;;
64075;SDS011;50327;51.328;12.324;2023-02-12T15:22:15;34.53;;;15.07;;
64075;SDS011;50327;51.328;12.324;2023-02-12T15:24:48;32.58;;;14.35;;
64075;SDS011;50327;51.328;12.324;2023-02-12T15:27:14;33.05;;;14.10;;
64075;SDS011;50327;51.328;12.324;2023-02-12T15:29:44;30.58;;;14.60;;
64075;SDS011;50327;51.328;12.324;2023-02-12T15:32:33;35.90;;;15.05;;
64075;SDS011;50327;51.328;12.324;2023-02-12T15:35:00;41.08;;;15.13;;
64075;SDS011;50327;51.328;12.324;2023-02-12T15:37:27;39.30;;;14.55;;
64075;SDS011;50327;51.328;12.324;2023-02-12T15:39:56;33.42;;;13.48;;
64075;SDS011;50327;51.328;12.324;2023-02-12T15:42:34;39.70;;;14.93;;
64075;SDS011;50327;51.328;12.324;2023-02-12T15:47:43;34.30;;;14.60;;
64075;SDS011;50327;51.328;12.324;2023-02-12T15:50:14;33.95;;;14.70;;
64075;SDS011;50327;51.328;12.324;2023-02-12T15:52:42;35.95;;;14.60;;
64075;SDS011;50327;51.328;12.324;2023-02-12T15:55:13;38.97;;;15.20;;
64075;SDS011;50327;51.328;12.324;2023-02-12T15:57:57;39.33;;;16.35;;
64075;SDS011;50327;51.328;12.324;2023-02-12T16:00:45;36.58;;;14.77;;
64075;SDS011;50327;51.328;12.324;2023-02-12T16:05:46;35.35;;;13.98;;
64075;SDS011;50327;51.328;12.324;2023-02-12T16:08:14;32.30;;;15.00;;
64075;SDS011;50327;51.328;12.324;2023-02-12T16:10:43;35.83;;;15.27;;
64075;SDS011;50327;51.328;12.324;2023-02-12T16:13:15;35.08;;;15.60;;
64075;SDS011;50327;51.328;12.324;2023-02-12T16:15:43;37.97;;;16.35;;
64075;SDS011;50327;51.328;12.324;2023-02-12T16:18:22;35.03;;;16.92;;
64075;SDS011;50327;51.328;12.324;2023-02-12T16:20:48;41.00;;;17.58;;
64075;SDS011;50327;51.328;12.324;2023-02-12T16:23:14;37.92;;;18.02;;
64075;SDS011;50327;51.328;12.324;2023-02-12T16:25:42;51.20;;;18.08;;
64075;SDS011;50327;51.328;12.324;2023-02-12T16:28:14;43.97;;;18.67;;
64075;SDS011;50327;51.328;12.324;2023-02-12T16:30:44;37.55;;;17.38;;
64075;SDS011;50327;51.328;12.324;2023-02-12T16:36:06;46.45;;;19.98;;
64075;SDS011;50327;51.328;12.324;2023-02-12T16:43:42;49.58;;;21.05;;
64075;SDS011;50327;51.328;12.324;2023-02-12T16:46:08;53.88;;;22.98;;
64075;SDS011;50327;51.328;12.324;2023-02-12T16:48:39;48.15;;;20.75;;
64075;SDS011;50327;51.328;12.324;2023-02-12T16:51:23;45.53;;;21.60;;
64075;SDS011;50327;51.328;12.324;2023-02-12T16:53:49;63.47;;;29.25;;
64075;SDS011;50327;51.328;12.324;2023-02-12T16:56:18;80.75;;;35.95;;
64075;SDS011;50327;51.328;12.324;2023-02-12T16:58:46;126.70;;;57.85;;
64075;SDS011;50327;51.328;12.324;2023-02-12T17:01:15;155.73;;;72.70;;
64075;SDS011;50327;51.328;12.324;2023-02-12T17:06:11;138.73;;;68.47;;
64075;SDS011;50327;51.328;12.324;2023-02-12T17:08:37;116.88;;;57.55;;
64075;SDS011;50327;51.328;12.324;2023-02-12T17:11:03;104.05;;;47.53;;
64075;SDS011;50327;51.328;12.324;2023-02-12T17:13:28;76.53;;;36.83;;
64075;SDS011;50327;51.328;12.324;2023-02-12T17:15:55;67.93;;;33.30;;
64075;SDS011;50327;51.328;12.324;2023-02-12T17:18:23;60.10;;;29.58;;
64075;SDS011;50327;51.328;12.324;2023-02-12T17:20:56;58.70;;;27.63;;
64075;SDS011;50327;51.328;12.324;2023-02-12T17:23:26;88.28;;;42.75;;
64075;SDS011;50327;51.328;12.324;2023-02-12T17:25:52;88.78;;;43.33;;
64075;SDS011;50327;51.328;12.324;2023-02-12T17:28:18;68.63;;;34.60;;
64075;SDS011;50327;51.328;12.324;2023-02-12T17:30:44;61.67;;;29.85;;
64075;SDS011;50327;51.328;12.324;2023-02-12T17:33:09;56.65;;;26.15;;
64075;SDS011;50327;51.328;12.324;2023-02-12T17:35:38;52.33;;;21.95;;
64075;SDS011;50327;51.328;12.324;2023-02-12T17:40:30;43.85;;;20.55;;
64075;SDS011;50327;51.328;12.324;2023-02-12T17:42:56;45.72;;;22.63;;
64075;SDS011;50327;51.328;12.324;2023-02-12T17:45:22;54.33;;;26.38;;
64075;SDS011;50327;51.328;12.324;2023-02-12T17:47:47;48.47;;;23.73;;
64075;SDS011;50327;51.328;12.324;2023-02-12T17:50:14;49.95;;;23.38;;
64075;SDS011;50327;51.328;12.324;2023-02-12T17:52:40;46.78;;;23.25;;
64075;SDS011;50327;51.328;12.324;2023-02-12T17:55:06;61.30;;;27.13;;
64075;SDS011;50327;51.328;12.324;2023-02-12T17:57:32;56.72;;;24.08;;
64075;SDS011;50327;51.328;12.324;2023-02-12T17:59:58;52.40;;;23.15;;
64075;SDS011;50327;51.328;12.324;2023-02-12T18:02:23;52.13;;;22.10;;
64075;SDS011;50327;51.328;12.324;2023-02-12T18:04:49;50.15;;;24.17;;